sensor_id;sensor_type;location;lat;lon;timestamp;pressure;altitude;pressure_sealevel;temperature;humidity
55191;BME280;41070;50.360;18.742;2024-02-26T00:01:01;97692.35;;;6.35;86.62
55191;BME280;41070;50.360;18.742;2024-02-26T00:03:48;97690.25;;;6.28;86.46
55191;BME280;41070;50.360;18.742;2024-02-26T00:06:14;97690.20;;;6.21;86.72
55191;BME280;41070;50.360;18.742;2024-02-26T00:08:41;97688.15;;;6.18;86.79
55191;BME280;41070;50.360;18.742;2024-02-26T00:11:07;97690.58;;;6.12;86.76
55191;BME280;41070;50.360;18.742;2024-02-26T00:13:33;97688.64;;;6.04;86.90
55191;BME280;41070;50.360;18.742;2024-02-26T00:16:00;97684.00;;;5.96;86.72
55191;BME280;41070;50.360;18.742;2024-02-26T00:18:26;97684.20;;;5.86;86.87
55191;BME280;41070;50.360;18.742;2024-02-26T00:20:52;97682.30;;;5.81;87.35
55191;BME280;41070;50.360;18.742;2024-02-26T00:23:19;97686.23;;;5.78;87.09
55191;BME280;41070;50.360;18.742;2024-02-26T00:25:46;97682.29;;;5.75;87.47
55191;BME280;41070;50.360;18.742;2024-02-26T00:28:13;97685.11;;;5.73;87.44
55191;BME280;41070;50.360;18.742;2024-02-26T00:30:39;97683.48;;;5.72;87.49
55191;BME280;41070;50.360;18.742;2024-02-26T00:33:06;97684.00;;;5.70;87.49
55191;BME280;41070;50.360;18.742;2024-02-26T00:35:32;97690.36;;;5.69;87.48
55191;BME280;41070;50.360;18.742;2024-02-26T00:37:58;97691.73;;;5.70;87.78
55191;BME280;41070;50.360;18.742;2024-02-26T00:40:26;97694.29;;;5.69;87.72
55191;BME280;41070;50.360;18.742;2024-02-26T00:42:53;97694.18;;;5.65;87.66
55191;BME280;41070;50.360;18.742;2024-02-26T00:45:20;97692.33;;;5.64;88.08
55191;BME280;41070;50.360;18.742;2024-02-26T00:47:46;97697.09;;;5.62;87.78
55191;BME280;41070;50.360;18.742;2024-02-26T00:50:13;97694.42;;;5.59;87.88
55191;BME280;41070;50.360;18.742;2024-02-26T00:52:39;97693.61;;;5.57;87.93
55191;BME280;41070;50.360;18.742;2024-02-26T00:55:06;97690.36;;;5.55;87.87
55191;BME280;41070;50.360;18.742;2024-02-26T00:57:33;97691.48;;;5.51;87.79
55191;BME280;41070;50.360;18.742;2024-02-26T00:59:59;97692.51;;;5.48;88.00
55191;BME280;41070;50.360;18.742;2024-02-26T01:02:26;97691.20;;;5.50;88.49
55191;BME280;41070;50.360;18.742;2024-02-26T01:04:53;97690.63;;;5.51;88.22
55191;BME280;41070;50.360;18.742;2024-02-26T01:07:19;97695.43;;;5.49;88.26
55191;BME280;41070;50.360;18.742;2024-02-26T01:09:46;97692.18;;;5.47;88.39
55191;BME280;41070;50.360;18.742;2024-02-26T01:12:12;97693.85;;;5.45;88.38
55191;BME280;41070;50.360;18.742;2024-02-26T01:14:38;97690.96;;;5.45;88.57
55191;BME280;41070;50.360;18.742;2024-02-26T01:17:04;97687.05;;;5.42;88.53
55191;BME280;41070;50.360;18.742;2024-02-26T01:19:31;97688.73;;;5.40;88.49
55191;BME280;41070;50.360;18.742;2024-02-26T01:21:57;97686.96;;;5.39;88.61
55191;BME280;41070;50.360;18.742;2024-02-26T01:24:23;97684.05;;;5.38;88.66
55191;BME280;41070;50.360;18.742;2024-02-26T01:26:50;97682.74;;;5.32;88.60
55191;BME280;41070;50.360;18.742;2024-02-26T01:29:16;97684.25;;;5.30;88.68
55191;BME280;41070;50.360;18.742;2024-02-26T01:31:42;97683.63;;;5.27;88.65
55191;BME280;41070;50.360;18.742;2024-02-26T01:34:09;97679.38;;;5.25;88.62
55191;BME280;41070;50.360;18.742;2024-02-26T01:36:35;97675.73;;;5.22;88.73
55191;BME280;41070;50.360;18.742;2024-02-26T01:39:02;97677.32;;;5.20;88.83
55191;BME280;41070;50.360;18.742;2024-02-26T01:41:29;97678.91;;;5.17;88.84
55191;BME280;41070;50.360;18.742;2024-02-26T01:43:55;97674.32;;;5.13;88.63
55191;BME280;41070;50.360;18.742;2024-02-26T01:46:21;97675.40;;;5.12;88.94
55191;BME280;41070;50.360;18.742;2024-02-26T01:48:49;97669.74;;;5.11;88.75
55191;BME280;41070;50.360;18.742;2024-02-26T01:51:16;97671.41;;;5.08;88.85
55191;BME280;41070;50.360;18.742;2024-02-26T01:53:43;97666.61;;;5.07;88.76
55191;BME280;41070;50.360;18.742;2024-02-26T01:56:11;97665.54;;;5.09;88.91
55191;BME280;41070;50.360;18.742;2024-02-26T01:58:38;97670.52;;;5.08;88.63
55191;BME280;41070;50.360;18.742;2024-02-26T02:01:04;97667.73;;;5.07;88.88
55191;BME280;41070;50.360;18.742;2024-02-26T02:03:31;97666.60;;;5.05;89.06
55191;BME280;41070;50.360;18.742;2024-02-26T02:05:58;97665.86;;;5.03;88.83
55191;BME280;41070;50.360;18.742;2024-02-26T02:08:24;97666.55;;;5.01;88.95
55191;BME280;41070;50.360;18.742;2024-02-26T02:10:51;97668.05;;;4.98;88.88
55191;BME280;41070;50.360;18.742;2024-02-26T02:13:17;97670.23;;;4.92;88.86
55191;BME280;41070;50.360;18.742;2024-02-26T02:15:43;97665.85;;;4.93;89.21
55191;BME280;41070;50.360;18.742;2024-02-26T02:18:10;97667.81;;;4.93;89.04
55191;BME280;41070;50.360;18.742;2024-02-26T02:20:36;97664.70;;;4.93;89.32
55191;BME280;41070;50.360;18.742;2024-02-26T02:23:02;97664.55;;;4.91;89.05
55191;BME280;41070;50.360;18.742;2024-02-26T02:25:29;97665.23;;;4.91;89.11
55191;BME280;41070;50.360;18.742;2024-02-26T02:27:55;97663.31;;;4.90;89.25
55191;BME280;41070;50.360;18.742;2024-02-26T02:30:27;97665.51;;;4.92;89.23
55191;BME280;41070;50.360;18.742;2024-02-26T02:32:55;97666.68;;;4.91;88.93
55191;BME280;41070;50.360;18.742;2024-02-26T02:35:23;97666.27;;;4.88;88.77
55191;BME280;41070;50.360;18.742;2024-02-26T02:37:52;97669.83;;;4.84;88.85
55191;BME280;41070;50.360;18.742;2024-02-26T02:40:18;97671.04;;;4.79;88.81
55191;BME280;41070;50.360;18.742;2024-02-26T02:42:44;97673.58;;;4.74;88.63
55191;BME280;41070;50.360;18.742;2024-02-26T02:45:11;97676.70;;;4.66;88.68
55191;BME280;41070;50.360;18.742;2024-02-26T02:47:37;97672.20;;;4.59;88.75
55191;BME280;41070;50.360;18.742;2024-02-26T02:50:04;97669.91;;;4.53;89.00
55191;BME280;41070;50.360;18.742;2024-02-26T02:52:31;97667.02;;;4.51;89.14
55191;BME280;41070;50.360;18.742;2024-02-26T02:54:57;97660.16;;;4.52;89.34
55191;BME280;41070;50.360;18.742;2024-02-26T02:57:24;97655.69;;;4.51;89.34
55191;BME280;41070;50.360;18.742;2024-02-26T02:59:50;97651.02;;;4.48;89.27
55191;BME280;41070;50.360;18.742;2024-02-26T03:02:17;97650.80;;;4.46;89.37
55191;BME280;41070;50.360;18.742;2024-02-26T03:04:43;97652.69;;;4.44;89.34
55191;BME280;41070;50.360;18.742;2024-02-26T03:07:10;97651.06;;;4.41;89.25
55191;BME280;41070;50.360;18.742;2024-02-26T03:09:36;97651.52;;;4.39;89.66
55191;BME280;41070;50.360;18.742;2024-02-26T03:12:03;97650.55;;;4.34;89.46
55191;BME280;41070;50.360;18.742;2024-02-26T03:14:30;97648.59;;;4.26;89.75
55191;BME280;41070;50.360;18.742;2024-02-26T03:16:56;97649.66;;;4.29;90.09
55191;BME280;41070;50.360;18.742;2024-02-26T03:19:22;97647.17;;;4.27;89.89
55191;BME280;41070;50.360;18.742;2024-02-26T03:21:49;97644.02;;;4.24;89.79
55191;BME280;41070;50.360;18.742;2024-02-26T03:24:15;97645.23;;;4.20;89.71
55191;BME280;41070;50.360;18.742;2024-02-26T03:26:42;97644.42;;;4.16;89.98
55191;BME280;41070;50.360;18.742;2024-02-26T03:29:08;97643.55;;;4.14;89.89
55191;BME280;41070;50.360;18.742;2024-02-26T03:31:36;97644.34;;;4.14;90.34
55191;BME280;41070;50.360;18.742;2024-02-26T03:34:02;97642.95;;;4.14;90.16
55191;BME280;41070;50.360;18.742;2024-02-26T03:36:29;97641.10;;;4.14;90.33
55191;BME280;41070;50.360;18.742;2024-02-26T03:38:55;97641.50;;;4.14;90.40
55191;BME280;41070;50.360;18.742;2024-02-26T03:41:22;97635.70;;;4.15;90.40
55191;BME280;41070;50.360;18.742;2024-02-26T03:43:48;97634.34;;;4.18;90.63
55191;BME280;41070;50.360;18.742;2024-02-26T03:46:15;97631.75;;;4.19;90.57
55191;BME280;41070;50.360;18.742;2024-02-26T03:48:41;97629.56;;;4.21;90.60
55191;BME280;41070;50.360;18.742;2024-02-26T03:51:08;97629.14;;;4.24;90.68
55191;BME280;41070;50.360;18.742;2024-02-26T03:53:35;97634.82;;;4.30;90.91
55191;BME280;41070;50.360;18.742;2024-02-26T03:56:05;97633.59;;;4.32;90.66
55191;BME280;41070;50.360;18.742;2024-02-26T03:58:31;97629.73;;;4.32;90.56
55191;BME280;41070;50.360;18.742;2024-02-26T04:00:59;97626.47;;;4.34;90.58
55191;BME280;41070;50.360;18.742;2024-02-26T04:03:25;97624.83;;;4.37;90.71
55191;BME280;41070;50.360;18.742;2024-02-26T04:05:52;97625.89;;;4.41;90.64
55191;BME280;41070;50.360;18.742;2024-02-26T04:08:18;97630.95;;;4.43;90.32
55191;BME280;41070;50.360;18.742;2024-02-26T04:10:44;97627.88;;;4.42;90.22
55191;BME280;41070;50.360;18.742;2024-02-26T04:13:11;97627.57;;;4.42;90.21
55191;BME280;41070;50.360;18.742;2024-02-26T04:15:37;97628.88;;;4.40;90.37
55191;BME280;41070;50.360;18.742;2024-02-26T04:18:04;97626.67;;;4.40;90.22
55191;BME280;41070;50.360;18.742;2024-02-26T04:20:30;97625.48;;;4.39;90.16
55191;BME280;41070;50.360;18.742;2024-02-26T04:22:56;97627.44;;;4.38;90.35
55191;BME280;41070;50.360;18.742;2024-02-26T04:25:23;97629.85;;;4.35;90.06
55191;BME280;41070;50.360;18.742;2024-02-26T04:27:49;97623.88;;;4.33;89.97
55191;BME280;41070;50.360;18.742;2024-02-26T04:30:16;97619.89;;;4.30;89.84
55191;BME280;41070;50.360;18.742;2024-02-26T04:32:43;97618.55;;;4.28;90.13
55191;BME280;41070;50.360;18.742;2024-02-26T04:35:10;97615.70;;;4.25;90.12
55191;BME280;41070;50.360;18.742;2024-02-26T04:37:36;97616.16;;;4.21;89.88
55191;BME280;41070;50.360;18.742;2024-02-26T04:40:04;97617.12;;;4.21;90.30
55191;BME280;41070;50.360;18.742;2024-02-26T04:42:31;97620.25;;;4.23;90.42
55191;BME280;41070;50.360;18.742;2024-02-26T04:44:57;97619.30;;;4.26;90.57
55191;BME280;41070;50.360;18.742;2024-02-26T04:47:24;97615.54;;;4.29;90.49
55191;BME280;41070;50.360;18.742;2024-02-26T04:49:51;97617.58;;;4.27;90.12
55191;BME280;41070;50.360;18.742;2024-02-26T04:52:18;97620.11;;;4.23;90.05
55191;BME280;41070;50.360;18.742;2024-02-26T04:54:45;97621.48;;;4.24;90.38
55191;BME280;41070;50.360;18.742;2024-02-26T04:57:11;97618.74;;;4.23;90.25
55191;BME280;41070;50.360;18.742;2024-02-26T04:59:37;97616.96;;;4.22;90.43
55191;BME280;41070;50.360;18.742;2024-02-26T05:02:04;97619.18;;;4.21;90.11
55191;BME280;41070;50.360;18.742;2024-02-26T05:04:30;97615.00;;;4.18;90.15
55191;BME280;41070;50.360;18.742;2024-02-26T05:06:57;97618.55;;;4.15;90.12
55191;BME280;41070;50.360;18.742;2024-02-26T05:09:23;97617.59;;;4.14;90.19
55191;BME280;41070;50.360;18.742;2024-02-26T05:11:49;97618.08;;;4.13;90.37
55191;BME280;41070;50.360;18.742;2024-02-26T05:14:16;97624.30;;;4.11;90.27
55191;BME280;41070;50.360;18.742;2024-02-26T05:16:42;97627.95;;;4.10;90.45
55191;BME280;41070;50.360;18.742;2024-02-26T05:19:08;97629.97;;;4.10;90.50
55191;BME280;41070;50.360;18.742;2024-02-26T05:21:35;97624.54;;;4.08;90.33
55191;BME280;41070;50.360;18.742;2024-02-26T05:24:01;97626.52;;;4.04;90.14
55191;BME280;41070;50.360;18.742;2024-02-26T05:26:27;97628.36;;;4.01;90.16
55191;BME280;41070;50.360;18.742;2024-02-26T05:28:54;97628.73;;;3.98;90.25
55191;BME280;41070;50.360;18.742;2024-02-26T05:31:26;97630.88;;;3.97;90.51
55191;BME280;41070;50.360;18.742;2024-02-26T05:33:52;97632.00;;;3.97;90.49
55191;BME280;41070;50.360;18.742;2024-02-26T05:36:23;97631.77;;;3.94;90.36
55191;BME280;41070;50.360;18.742;2024-02-26T05:38:51;97628.99;;;3.95;90.74
55191;BME280;41070;50.360;18.742;2024-02-26T05:41:18;97631.89;;;3.94;90.32
55191;BME280;41070;50.360;18.742;2024-02-26T05:43:49;97631.91;;;3.90;90.55
55191;BME280;41070;50.360;18.742;2024-02-26T05:46:21;97634.02;;;3.90;90.44
55191;BME280;41070;50.360;18.742;2024-02-26T05:48:51;97633.11;;;3.88;90.56
55191;BME280;41070;50.360;18.742;2024-02-26T05:51:17;97635.61;;;3.86;90.47
55191;BME280;41070;50.360;18.742;2024-02-26T05:53:44;97638.52;;;3.83;90.49
55191;BME280;41070;50.360;18.742;2024-02-26T05:56:10;97640.43;;;3.82;90.82
55191;BME280;41070;50.360;18.742;2024-02-26T05:58:37;97640.64;;;3.83;90.83
55191;BME280;41070;50.360;18.742;2024-02-26T06:01:03;97643.34;;;3.85;90.97
55191;BME280;41070;50.360;18.742;2024-02-26T06:03:32;97643.04;;;3.84;91.01
55191;BME280;41070;50.360;18.742;2024-02-26T06:05:59;97643.86;;;3.86;90.89
55191;BME280;41070;50.360;18.742;2024-02-26T06:08:25;97644.94;;;3.89;91.04
55191;BME280;41070;50.360;18.742;2024-02-26T06:10:51;97649.91;;;3.92;91.01
55191;BME280;41070;50.360;18.742;2024-02-26T06:13:18;97647.52;;;3.95;91.20
55191;BME280;41070;50.360;18.742;2024-02-26T06:15:44;97642.88;;;3.99;91.11
55191;BME280;41070;50.360;18.742;2024-02-26T06:18:10;97643.28;;;4.01;91.17
55191;BME280;41070;50.360;18.742;2024-02-26T06:20:37;97651.43;;;4.07;91.16
55191;BME280;41070;50.360;18.742;2024-02-26T06:23:03;97646.96;;;4.13;91.41
55191;BME280;41070;50.360;18.742;2024-02-26T06:25:30;97654.20;;;4.18;91.09
55191;BME280;41070;50.360;18.742;2024-02-26T06:27:56;97659.43;;;4.23;91.35
55191;BME280;41070;50.360;18.742;2024-02-26T06:30:22;97662.30;;;4.25;91.13
55191;BME280;41070;50.360;18.742;2024-02-26T06:32:49;97658.50;;;4.29;91.25
55191;BME280;41070;50.360;18.742;2024-02-26T06:35:16;97660.27;;;4.33;91.23
55191;BME280;41070;50.360;18.742;2024-02-26T06:37:42;97663.56;;;4.39;91.48
55191;BME280;41070;50.360;18.742;2024-02-26T06:40:08;97668.47;;;4.42;91.39
55191;BME280;41070;50.360;18.742;2024-02-26T06:42:35;97670.11;;;4.48;91.32
55191;BME280;41070;50.360;18.742;2024-02-26T06:45:01;97670.11;;;4.55;91.52
55191;BME280;41070;50.360;18.742;2024-02-26T06:47:30;97673.90;;;4.64;91.62
55191;BME280;41070;50.360;18.742;2024-02-26T06:49:56;97674.45;;;4.73;91.52
55191;BME280;41070;50.360;18.742;2024-02-26T06:52:24;97677.16;;;4.81;91.46
55191;BME280;41070;50.360;18.742;2024-02-26T06:54:51;97675.86;;;4.87;91.46
55191;BME280;41070;50.360;18.742;2024-02-26T06:57:21;97672.83;;;4.94;91.46
55191;BME280;41070;50.360;18.742;2024-02-26T06:59:48;97670.82;;;4.99;91.08
55191;BME280;41070;50.360;18.742;2024-02-26T07:02:14;97672.04;;;5.04;91.10
55191;BME280;41070;50.360;18.742;2024-02-26T07:04:42;97670.92;;;5.09;91.25
55191;BME280;41070;50.360;18.742;2024-02-26T07:07:08;97671.41;;;5.17;90.99
55191;BME280;41070;50.360;18.742;2024-02-26T07:09:35;97667.55;;;5.22;90.84
55191;BME280;41070;50.360;18.742;2024-02-26T07:12:01;97671.51;;;5.31;91.07
55191;BME280;41070;50.360;18.742;2024-02-26T07:14:28;97675.45;;;5.41;91.12
55191;BME280;41070;50.360;18.742;2024-02-26T07:16:55;97666.95;;;5.48;90.98
55191;BME280;41070;50.360;18.742;2024-02-26T07:19:22;97664.02;;;5.52;91.09
55191;BME280;41070;50.360;18.742;2024-02-26T07:21:48;97662.89;;;5.54;90.67
55191;BME280;41070;50.360;18.742;2024-02-26T07:24:14;97659.84;;;5.58;90.89
55191;BME280;41070;50.360;18.742;2024-02-26T07:26:41;97660.61;;;5.61;90.53
55191;BME280;41070;50.360;18.742;2024-02-26T07:29:07;97659.61;;;5.68;90.76
55191;BME280;41070;50.360;18.742;2024-02-26T07:31:33;97657.63;;;5.77;90.82
55191;BME280;41070;50.360;18.742;2024-02-26T07:34:00;97661.33;;;5.90;90.95
55191;BME280;41070;50.360;18.742;2024-02-26T07:36:26;97659.15;;;6.02;90.83
55191;BME280;41070;50.360;18.742;2024-02-26T07:38:53;97658.12;;;6.13;90.73
55191;BME280;41070;50.360;18.742;2024-02-26T07:41:20;97657.58;;;6.21;90.79
55191;BME280;41070;50.360;18.742;2024-02-26T07:43:46;97665.13;;;6.28;90.50
55191;BME280;41070;50.360;18.742;2024-02-26T07:46:13;97672.58;;;6.39;90.67
55191;BME280;41070;50.360;18.742;2024-02-26T07:48:39;97675.01;;;6.52;90.53
55191;BME280;41070;50.360;18.742;2024-02-26T07:51:07;97675.16;;;6.66;90.41
55191;BME280;41070;50.360;18.742;2024-02-26T07:53:33;97672.50;;;6.78;90.37
55191;BME280;41070;50.360;18.742;2024-02-26T07:55:59;97676.11;;;6.84;90.29
55191;BME280;41070;50.360;18.742;2024-02-26T07:58:25;97677.87;;;6.87;89.73
55191;BME280;41070;50.360;18.742;2024-02-26T08:00:52;97681.92;;;6.92;89.66
55191;BME280;41070;50.360;18.742;2024-02-26T08:03:18;97687.73;;;6.96;89.48
55191;BME280;41070;50.360;18.742;2024-02-26T08:05:44;97690.09;;;7.01;89.39
55191;BME280;41070;50.360;18.742;2024-02-26T08:08:11;97687.23;;;7.06;89.25
55191;BME280;41070;50.360;18.742;2024-02-26T08:10:37;97683.66;;;7.12;89.10
55191;BME280;41070;50.360;18.742;2024-02-26T08:13:04;97686.34;;;7.18;89.31
55191;BME280;41070;50.360;18.742;2024-02-26T08:15:32;97680.73;;;7.22;89.08
55191;BME280;41070;50.360;18.742;2024-02-26T08:18:00;97679.63;;;7.27;88.98
55191;BME280;41070;50.360;18.742;2024-02-26T08:20:29;97681.59;;;7.32;88.83
55191;BME280;41070;50.360;18.742;2024-02-26T08:22:56;97686.88;;;7.37;88.77
55191;BME280;41070;50.360;18.742;2024-02-26T08:25:23;97687.39;;;7.39;88.56
55191;BME280;41070;50.360;18.742;2024-02-26T08:27:51;97687.73;;;7.43;88.72
55191;BME280;41070;50.360;18.742;2024-02-26T08:30:18;97688.66;;;7.48;88.45
55191;BME280;41070;50.360;18.742;2024-02-26T08:32:45;97692.81;;;7.53;88.62
55191;BME280;41070;50.360;18.742;2024-02-26T08:35:12;97689.70;;;7.62;88.46
55191;BME280;41070;50.360;18.742;2024-02-26T08:37:39;97688.92;;;7.71;88.35
55191;BME280;41070;50.360;18.742;2024-02-26T08:40:05;97686.21;;;7.79;88.58
55191;BME280;41070;50.360;18.742;2024-02-26T08:42:32;97685.55;;;7.87;88.38
55191;BME280;41070;50.360;18.742;2024-02-26T08:45:00;97690.80;;;7.93;88.12
55191;BME280;41070;50.360;18.742;2024-02-26T08:47:27;97689.46;;;8.01;88.33
55191;BME280;41070;50.360;18.742;2024-02-26T08:49:54;97684.15;;;8.10;88.21
55191;BME280;41070;50.360;18.742;2024-02-26T08:52:20;97686.00;;;8.17;88.25
55191;BME280;41070;50.360;18.742;2024-02-26T08:54:48;97688.63;;;8.26;88.08
55191;BME280;41070;50.360;18.742;2024-02-26T08:57:15;97689.01;;;8.33;88.00
55191;BME280;41070;50.360;18.742;2024-02-26T08:59:41;97684.92;;;8.42;88.16
55191;BME280;41070;50.360;18.742;2024-02-26T09:02:08;97685.13;;;8.51;87.98
55191;BME280;41070;50.360;18.742;2024-02-26T09:04:35;97683.85;;;8.58;87.81
55191;BME280;41070;50.360;18.742;2024-02-26T09:07:02;97686.61;;;8.68;88.03
55191;BME280;41070;50.360;18.742;2024-02-26T09:09:28;97678.27;;;8.78;88.07
55191;BME280;41070;50.360;18.742;2024-02-26T09:11:54;97675.88;;;8.89;88.13
55191;BME280;41070;50.360;18.742;2024-02-26T09:14:21;97673.11;;;8.99;88.20
55191;BME280;41070;50.360;18.742;2024-02-26T09:16:48;97671.92;;;9.10;87.91
55191;BME280;41070;50.360;18.742;2024-02-26T09:19:14;97669.12;;;9.19;87.84
55191;BME280;41070;50.360;18.742;2024-02-26T09:21:44;97664.88;;;9.30;87.83
55191;BME280;41070;50.360;18.742;2024-02-26T09:24:12;97666.73;;;9.40;87.34
55191;BME280;41070;50.360;18.742;2024-02-26T09:26:38;97667.67;;;9.52;87.26
55191;BME280;41070;50.360;18.742;2024-02-26T09:29:05;97667.10;;;9.64;87.08
55191;BME280;41070;50.360;18.742;2024-02-26T09:31:31;97671.21;;;9.73;86.85
55191;BME280;41070;50.360;18.742;2024-02-26T09:33:59;97670.71;;;9.80;86.61
55191;BME280;41070;50.360;18.742;2024-02-26T09:36:26;97672.12;;;9.88;86.63
55191;BME280;41070;50.360;18.742;2024-02-26T09:38:52;97669.33;;;9.95;86.12
55191;BME280;41070;50.360;18.742;2024-02-26T09:41:18;97673.30;;;10.02;85.92
55191;BME280;41070;50.360;18.742;2024-02-26T09:43:45;97670.14;;;10.10;86.15
55191;BME280;41070;50.360;18.742;2024-02-26T09:46:12;97668.55;;;10.16;85.70
55191;BME280;41070;50.360;18.742;2024-02-26T09:48:40;97671.36;;;10.21;85.28
55191;BME280;41070;50.360;18.742;2024-02-26T09:51:10;97676.02;;;10.20;85.15
55191;BME280;41070;50.360;18.742;2024-02-26T09:53:38;97677.05;;;10.18;84.93
55191;BME280;41070;50.360;18.742;2024-02-26T09:56:08;97679.15;;;10.15;84.55
55191;BME280;41070;50.360;18.742;2024-02-26T09:58:36;97682.48;;;10.14;84.46
55191;BME280;41070;50.360;18.742;2024-02-26T10:01:09;97678.16;;;10.15;84.54
55191;BME280;41070;50.360;18.742;2024-02-26T10:03:39;97682.17;;;10.25;84.21
55191;BME280;41070;50.360;18.742;2024-02-26T10:06:08;97677.52;;;10.34;84.05
55191;BME280;41070;50.360;18.742;2024-02-26T10:08:35;97674.79;;;10.41;83.65
55191;BME280;41070;50.360;18.742;2024-02-26T10:11:10;97675.63;;;10.48;83.95
55191;BME280;41070;50.360;18.742;2024-02-26T10:13:56;97675.34;;;10.56;83.79
55191;BME280;41070;50.360;18.742;2024-02-26T10:16:22;97675.20;;;10.63;83.61
55191;BME280;41070;50.360;18.742;2024-02-26T10:18:50;97677.31;;;10.67;83.47
55191;BME280;41070;50.360;18.742;2024-02-26T10:21:17;97678.74;;;10.71;83.31
55191;BME280;41070;50.360;18.742;2024-02-26T10:23:44;97676.41;;;10.75;83.41
55191;BME280;41070;50.360;18.742;2024-02-26T10:26:12;97676.83;;;10.78;82.92
55191;BME280;41070;50.360;18.742;2024-02-26T10:28:39;97675.91;;;10.84;82.87
55191;BME280;41070;50.360;18.742;2024-02-26T10:31:06;97674.20;;;10.90;82.63
55191;BME280;41070;50.360;18.742;2024-02-26T10:33:34;97673.86;;;10.93;82.58
55191;BME280;41070;50.360;18.742;2024-02-26T10:36:03;97677.41;;;10.97;82.37
55191;BME280;41070;50.360;18.742;2024-02-26T10:38:32;97672.10;;;11.01;82.49
55191;BME280;41070;50.360;18.742;2024-02-26T10:40:58;97672.09;;;11.07;82.45
55191;BME280;41070;50.360;18.742;2024-02-26T10:43:25;97669.39;;;11.12;82.39
55191;BME280;41070;50.360;18.742;2024-02-26T10:45:58;97664.27;;;11.22;82.59
55191;BME280;41070;50.360;18.742;2024-02-26T10:48:25;97662.20;;;11.30;82.38
55191;BME280;41070;50.360;18.742;2024-02-26T10:50:51;97660.41;;;11.34;82.07
55191;BME280;41070;50.360;18.742;2024-02-26T10:53:22;97663.64;;;11.37;81.82
55191;BME280;41070;50.360;18.742;2024-02-26T10:55:54;97658.01;;;11.39;81.52
55191;BME280;41070;50.360;18.742;2024-02-26T10:58:21;97660.48;;;11.43;81.22
55191;BME280;41070;50.360;18.742;2024-02-26T11:00:51;97660.29;;;11.46;80.97
55191;BME280;41070;50.360;18.742;2024-02-26T11:03:19;97663.05;;;11.48;80.81
55191;BME280;41070;50.360;18.742;2024-02-26T11:05:50;97661.82;;;11.56;81.29
55191;BME280;41070;50.360;18.742;2024-02-26T11:08:20;97659.38;;;11.68;81.54
55191;BME280;41070;50.360;18.742;2024-02-26T11:10:48;97656.66;;;11.82;81.37
55191;BME280;41070;50.360;18.742;2024-02-26T11:13:18;97654.95;;;12.10;80.96
55191;BME280;41070;50.360;18.742;2024-02-26T11:15:48;97655.91;;;12.35;80.75
55191;BME280;41070;50.360;18.742;2024-02-26T11:18:15;97652.02;;;12.55;80.84
55191;BME280;41070;50.360;18.742;2024-02-26T11:20:43;97650.54;;;12.71;79.84
55191;BME280;41070;50.360;18.742;2024-02-26T11:23:10;97653.56;;;12.84;79.94
55191;BME280;41070;50.360;18.742;2024-02-26T11:25:37;97648.65;;;12.81;78.31
55191;BME280;41070;50.360;18.742;2024-02-26T11:28:09;97643.10;;;12.75;78.69
55191;BME280;41070;50.360;18.742;2024-02-26T11:30:40;97646.48;;;12.78;78.46
55191;BME280;41070;50.360;18.742;2024-02-26T11:33:09;97644.91;;;12.86;78.11
55191;BME280;41070;50.360;18.742;2024-02-26T11:35:38;97653.37;;;12.97;78.26
55191;BME280;41070;50.360;18.742;2024-02-26T11:38:05;97651.70;;;13.07;78.17
55191;BME280;41070;50.360;18.742;2024-02-26T11:40:37;97651.55;;;13.10;78.42
55191;BME280;41070;50.360;18.742;2024-02-26T11:43:04;97650.17;;;13.17;78.04
55191;BME280;41070;50.360;18.742;2024-02-26T11:48:20;97650.38;;;13.35;77.77
55191;BME280;41070;50.360;18.742;2024-02-26T11:50:51;97644.02;;;13.43;78.26
55191;BME280;41070;50.360;18.742;2024-02-26T11:53:29;97643.46;;;13.53;78.59
55191;BME280;41070;50.360;18.742;2024-02-26T11:58:45;97642.55;;;13.58;77.97
55191;BME280;41070;50.360;18.742;2024-02-26T12:01:41;97644.25;;;13.53;77.88
55191;BME280;41070;50.360;18.742;2024-02-26T12:04:11;97649.45;;;13.38;76.85
55191;BME280;41070;50.360;18.742;2024-02-26T12:06:43;97646.54;;;13.33;77.68
55191;BME280;41070;50.360;18.742;2024-02-26T12:09:11;97641.23;;;13.45;78.37
55191;BME280;41070;50.360;18.742;2024-02-26T12:11:40;97641.02;;;13.60;78.22
55191;BME280;41070;50.360;18.742;2024-02-26T12:14:08;97642.09;;;13.62;77.81
55191;BME280;41070;50.360;18.742;2024-02-26T12:16:36;97643.09;;;13.63;77.58
55191;BME280;41070;50.360;18.742;2024-02-26T12:19:07;97639.71;;;13.58;76.88
55191;BME280;41070;50.360;18.742;2024-02-26T12:21:35;97640.71;;;13.51;76.59
55191;BME280;41070;50.360;18.742;2024-02-26T12:24:29;97634.96;;;13.42;76.61
55191;BME280;41070;50.360;18.742;2024-02-26T12:26:55;97635.25;;;13.33;76.73
55191;BME280;41070;50.360;18.742;2024-02-26T12:29:21;97629.11;;;13.30;76.54
55191;BME280;41070;50.360;18.742;2024-02-26T12:31:48;97632.02;;;13.30;76.81
55191;BME280;41070;50.360;18.742;2024-02-26T12:34:15;97628.41;;;13.30;77.46
55191;BME280;41070;50.360;18.742;2024-02-26T12:36:42;97625.11;;;13.29;77.35
55191;BME280;41070;50.360;18.742;2024-02-26T12:39:09;97625.05;;;13.33;77.45
55191;BME280;41070;50.360;18.742;2024-02-26T12:41:37;97632.25;;;13.29;77.44
55191;BME280;41070;50.360;18.742;2024-02-26T12:44:04;97633.61;;;13.24;77.10
55191;BME280;41070;50.360;18.742;2024-02-26T12:46:32;97636.60;;;13.16;77.24
55191;BME280;41070;50.360;18.742;2024-02-26T12:48:58;97633.73;;;13.08;76.89
55191;BME280;41070;50.360;18.742;2024-02-26T12:51:26;97635.58;;;13.03;77.40
55191;BME280;41070;50.360;18.742;2024-02-26T12:53:54;97635.58;;;13.02;77.77
55191;BME280;41070;50.360;18.742;2024-02-26T12:56:22;97637.58;;;13.07;77.37
55191;BME280;41070;50.360;18.742;2024-02-26T12:58:50;97633.52;;;13.16;77.36
55191;BME280;41070;50.360;18.742;2024-02-26T13:01:21;97635.52;;;13.20;77.49
55191;BME280;41070;50.360;18.742;2024-02-26T13:03:50;97637.06;;;13.19;77.34